sensor_id;sensor_type;location;lat;lon;timestamp;pressure;altitude;pressure_sealevel;temperature;humidity
56142;BME280;42018;48.588;10.836;2023-07-29T00:00:23;96452.97;;;18.39;90.57
56142;BME280;42018;48.588;10.836;2023-07-29T00:03:09;96458.81;;;18.41;90.20
56142;BME280;42018;48.588;10.836;2023-07-29T00:05:55;96460.44;;;18.33;89.42
56142;BME280;42018;48.588;10.836;2023-07-29T00:08:41;96447.72;;;18.22;89.58
56142;BME280;42018;48.588;10.836;2023-07-29T00:11:26;96451.00;;;18.27;89.45
56142;BME280;42018;48.588;10.836;2023-07-29T00:14:12;96448.72;;;18.38;87.93
56142;BME280;42018;48.588;10.836;2023-07-29T00:37:42;96429.53;;;18.57;82.65
56142;BME280;42018;48.588;10.836;2023-07-29T00:40:28;96424.72;;;18.50;82.83
56142;BME280;42018;48.588;10.836;2023-07-29T00:43:15;96428.97;;;18.42;82.68
56142;BME280;42018;48.588;10.836;2023-07-29T00:46:01;96426.91;;;18.48;81.89
56142;BME280;42018;48.588;10.836;2023-07-29T00:48:46;96423.31;;;18.44;82.58
56142;BME280;42018;48.588;10.836;2023-07-29T00:51:32;96427.91;;;18.43;82.66
56142;BME280;42018;48.588;10.836;2023-07-29T00:54:18;96430.44;;;18.40;82.86
56142;BME280;42018;48.588;10.836;2023-07-29T00:57:04;96433.25;;;18.43;82.57
56142;BME280;42018;48.588;10.836;2023-07-29T00:59:50;96431.22;;;18.40;82.67
56142;BME280;42018;48.588;10.836;2023-07-29T01:02:36;96429.31;;;18.41;82.90
56142;BME280;42018;48.588;10.836;2023-07-29T01:05:22;96426.59;;;18.50;82.22
56142;BME280;42018;48.588;10.836;2023-07-29T01:08:21;96428.31;;;18.54;81.32
56142;BME280;42018;48.588;10.836;2023-07-29T01:12:33;96420.13;;;18.51;81.30
56142;BME280;42018;48.588;10.836;2023-07-29T01:15:01;96420.84;;;18.60;80.80
56142;BME280;42018;48.588;10.836;2023-07-29T01:18:16;96427.94;;;18.64;80.23
56142;BME280;42018;48.588;10.836;2023-07-29T01:21:05;96419.09;;;18.64;80.63
56142;BME280;42018;48.588;10.836;2023-07-29T01:23:52;96422.56;;;18.64;81.07
56142;BME280;42018;48.588;10.836;2023-07-29T01:26:38;96424.50;;;18.55;81.63
56142;BME280;42018;48.588;10.836;2023-07-29T01:29:24;96416.97;;;18.49;81.97
56142;BME280;42018;48.588;10.836;2023-07-29T01:32:17;96407.53;;;18.42;82.27
56142;BME280;42018;48.588;10.836;2023-07-29T01:35:19;96400.78;;;18.36;82.23
56142;BME280;42018;48.588;10.836;2023-07-29T01:38:13;96401.84;;;18.44;82.35
56142;BME280;42018;48.588;10.836;2023-07-29T01:41:04;96392.69;;;18.45;82.00
56142;BME280;42018;48.588;10.836;2023-07-29T01:43:52;96390.13;;;18.49;81.43
56142;BME280;42018;48.588;10.836;2023-07-29T01:46:38;96396.22;;;18.37;82.09
56142;BME280;42018;48.588;10.836;2023-07-29T01:49:23;96393.59;;;18.19;83.74
56142;BME280;42018;48.588;10.836;2023-07-29T01:52:11;96387.81;;;18.09;84.59
56142;BME280;42018;48.588;10.836;2023-07-29T01:54:59;96393.00;;;18.14;84.54
56142;BME280;42018;48.588;10.836;2023-07-29T01:57:45;96384.31;;;18.17;84.28
56142;BME280;42018;48.588;10.836;2023-07-29T02:00:30;96386.63;;;18.27;83.81
56142;BME280;42018;48.588;10.836;2023-07-29T04:12:34;96353.81;;;17.92;81.86
56142;BME280;42018;48.588;10.836;2023-07-29T06:08:14;96347.69;;;18.21;90.19
56142;BME280;42018;48.588;10.836;2023-07-29T06:14:41;96347.09;;;18.15;91.37
56142;BME280;42018;48.588;10.836;2023-07-29T06:17:26;96348.03;;;18.19;91.83
56142;BME280;42018;48.588;10.836;2023-07-29T06:20:11;96349.72;;;18.24;92.26
56142;BME280;42018;48.588;10.836;2023-07-29T06:22:57;96356.81;;;18.29;92.47
56142;BME280;42018;48.588;10.836;2023-07-29T06:25:42;96364.47;;;18.39;93.11
56142;BME280;42018;48.588;10.836;2023-07-29T06:28:30;96351.66;;;18.45;92.10
56142;BME280;42018;48.588;10.836;2023-07-29T06:31:16;96351.72;;;18.36;94.66
56142;BME280;42018;48.588;10.836;2023-07-29T06:34:01;96355.78;;;18.42;94.54
56142;BME280;42018;48.588;10.836;2023-07-29T06:36:47;96354.97;;;18.50;94.54
56142;BME280;42018;48.588;10.836;2023-07-29T06:39:32;96339.56;;;18.09;97.18
56142;BME280;42018;48.588;10.836;2023-07-29T06:42:18;96359.03;;;18.27;97.37
56142;BME280;42018;48.588;10.836;2023-07-29T06:45:04;96390.47;;;18.47;95.21
56142;BME280;42018;48.588;10.836;2023-07-29T06:47:50;96367.81;;;18.36;95.17
56142;BME280;42018;48.588;10.836;2023-07-29T06:50:35;96366.06;;;18.40;95.05
56142;BME280;42018;48.588;10.836;2023-07-29T06:53:21;96365.69;;;18.50;94.99
56142;BME280;42018;48.588;10.836;2023-07-29T06:56:06;96360.47;;;18.54;94.70
56142;BME280;42018;48.588;10.836;2023-07-29T06:58:52;96358.63;;;18.66;93.69
56142;BME280;42018;48.588;10.836;2023-07-29T07:01:37;96350.13;;;18.35;94.78
56142;BME280;42018;48.588;10.836;2023-07-29T07:04:23;96349.19;;;18.39;96.11
56142;BME280;42018;48.588;10.836;2023-07-29T07:07:08;96352.84;;;18.56;95.05
56142;BME280;42018;48.588;10.836;2023-07-29T07:09:53;96333.19;;;18.73;94.33
56142;BME280;42018;48.588;10.836;2023-07-29T07:12:39;96341.81;;;18.78;93.71
56142;BME280;42018;48.588;10.836;2023-07-29T07:15:24;96374.38;;;18.98;94.05
56142;BME280;42018;48.588;10.836;2023-07-29T07:18:09;96422.47;;;18.82;95.88
56142;BME280;42018;48.588;10.836;2023-07-29T07:20:55;96422.66;;;18.47;97.52
56142;BME280;42018;48.588;10.836;2023-07-29T07:24:05;96351.72;;;18.36;98.02
56142;BME280;42018;48.588;10.836;2023-07-29T08:05:08;96337.84;;;20.08;89.18
56142;BME280;42018;48.588;10.836;2023-07-29T08:07:57;96334.72;;;20.06;89.49
56142;BME280;42018;48.588;10.836;2023-07-29T08:10:45;96334.94;;;20.14;88.48
56142;BME280;42018;48.588;10.836;2023-07-29T08:13:30;96331.34;;;20.22;89.08
56142;BME280;42018;48.588;10.836;2023-07-29T08:16:15;96334.00;;;20.34;88.85
56142;BME280;42018;48.588;10.836;2023-07-29T08:19:24;96338.50;;;20.30;88.01
56142;BME280;42018;48.588;10.836;2023-07-29T08:22:10;96337.84;;;20.33;89.00
56142;BME280;42018;48.588;10.836;2023-07-29T08:32:26;96345.22;;;20.48;86.87
56142;BME280;42018;48.588;10.836;2023-07-29T08:35:25;96345.41;;;20.80;86.87
56142;BME280;42018;48.588;10.836;2023-07-29T08:43:29;96341.69;;;21.13;84.98
56142;BME280;42018;48.588;10.836;2023-07-29T08:48:52;96353.28;;;21.41;84.87
56142;BME280;42018;48.588;10.836;2023-07-29T08:51:38;96356.09;;;21.61;82.88
56142;BME280;42018;48.588;10.836;2023-07-29T08:54:24;96361.78;;;21.71;83.89
56142;BME280;42018;48.588;10.836;2023-07-29T08:57:10;96383.72;;;21.42;84.08
56142;BME280;42018;48.588;10.836;2023-07-29T08:59:56;96391.72;;;21.38;84.39
56142;BME280;42018;48.588;10.836;2023-07-29T09:02:41;96393.78;;;21.17;87.04
56142;BME280;42018;48.588;10.836;2023-07-29T09:05:27;96382.50;;;21.27;87.63
56142;BME280;42018;48.588;10.836;2023-07-29T09:08:13;96372.84;;;21.38;88.20
56142;BME280;42018;48.588;10.836;2023-07-29T09:10:59;96384.06;;;21.40;88.32
56142;BME280;42018;48.588;10.836;2023-07-29T09:13:45;96372.97;;;21.58;87.88
56142;BME280;42018;48.588;10.836;2023-07-29T09:16:31;96371.53;;;21.92;87.92
56142;BME280;42018;48.588;10.836;2023-07-29T09:19:17;96375.97;;;22.00;86.35
56142;BME280;42018;48.588;10.836;2023-07-29T09:22:02;96372.19;;;21.73;86.11
56142;BME280;42018;48.588;10.836;2023-07-29T09:24:48;96368.31;;;21.70;86.12
56142;BME280;42018;48.588;10.836;2023-07-29T09:27:33;96369.28;;;21.78;87.58
56142;BME280;42018;48.588;10.836;2023-07-29T09:30:23;96373.69;;;21.70;86.66
56142;BME280;42018;48.588;10.836;2023-07-29T09:33:09;96372.31;;;21.92;84.79
56142;BME280;42018;48.588;10.836;2023-07-29T09:35:54;96354.66;;;21.79;82.92
56142;BME280;42018;48.588;10.836;2023-07-29T09:38:40;96359.06;;;21.87;84.53
56142;BME280;42018;48.588;10.836;2023-07-29T09:41:29;96364.03;;;21.69;83.71
56142;BME280;42018;48.588;10.836;2023-07-29T09:44:17;96360.13;;;21.67;83.26
56142;BME280;42018;48.588;10.836;2023-07-29T09:47:03;96360.03;;;21.79;83.53
56142;BME280;42018;48.588;10.836;2023-07-29T09:49:49;96363.69;;;21.87;83.76
56142;BME280;42018;48.588;10.836;2023-07-29T09:52:35;96363.53;;;22.11;83.85
56142;BME280;42018;48.588;10.836;2023-07-29T09:55:24;96362.09;;;21.70;84.80
56142;BME280;42018;48.588;10.836;2023-07-29T09:58:11;96360.44;;;21.65;84.46
56142;BME280;42018;48.588;10.836;2023-07-29T10:00:56;96354.66;;;21.35;84.65
56142;BME280;42018;48.588;10.836;2023-07-29T10:03:42;96359.34;;;21.82;84.51
56142;BME280;42018;48.588;10.836;2023-07-29T10:06:28;96359.31;;;21.50;85.18
56142;BME280;42018;48.588;10.836;2023-07-29T10:09:15;96360.88;;;21.51;83.52
56142;BME280;42018;48.588;10.836;2023-07-29T10:12:00;96360.84;;;21.23;82.10
56142;BME280;42018;48.588;10.836;2023-07-29T10:14:47;96362.28;;;21.33;79.68
56142;BME280;42018;48.588;10.836;2023-07-29T10:17:34;96357.56;;;21.30;79.63
56142;BME280;42018;48.588;10.836;2023-07-29T10:20:21;96354.66;;;21.79;78.29
56142;BME280;42018;48.588;10.836;2023-07-29T10:23:07;96355.00;;;21.78;76.00
56142;BME280;42018;48.588;10.836;2023-07-29T10:25:59;96348.56;;;21.98;74.43
56142;BME280;42018;48.588;10.836;2023-07-29T10:28:48;96345.00;;;22.41;75.14
56142;BME280;42018;48.588;10.836;2023-07-29T10:31:39;96338.91;;;22.99;74.78
56142;BME280;42018;48.588;10.836;2023-07-29T10:34:27;96329.97;;;22.60;70.08
56142;BME280;42018;48.588;10.836;2023-07-29T10:37:12;96324.34;;;22.68;70.50
56142;BME280;42018;48.588;10.836;2023-07-29T10:39:58;96320.75;;;23.19;71.38
56142;BME280;42018;48.588;10.836;2023-07-29T10:43:03;96321.19;;;23.21;68.08
56142;BME280;42018;48.588;10.836;2023-07-29T10:45:49;96325.56;;;23.49;66.02
56142;BME280;42018;48.588;10.836;2023-07-29T10:54:11;96319.44;;;23.52;65.46
56142;BME280;42018;48.588;10.836;2023-07-29T10:56:57;96331.13;;;22.78;66.29
56142;BME280;42018;48.588;10.836;2023-07-29T10:59:56;96321.91;;;22.99;66.22
56142;BME280;42018;48.588;10.836;2023-07-29T11:02:41;96316.22;;;23.23;66.20
56142;BME280;42018;48.588;10.836;2023-07-29T11:05:51;96329.56;;;23.35;64.70
56142;BME280;42018;48.588;10.836;2023-07-29T11:08:36;96333.88;;;23.82;65.81
56142;BME280;42018;48.588;10.836;2023-07-29T11:11:22;96330.75;;;24.03;64.31
56142;BME280;42018;48.588;10.836;2023-07-29T11:14:07;96333.50;;;24.30;63.20
56142;BME280;42018;48.588;10.836;2023-07-29T11:16:53;96328.31;;;24.21;61.29
56142;BME280;42018;48.588;10.836;2023-07-29T11:19:39;96311.78;;;24.26;63.16
56142;BME280;42018;48.588;10.836;2023-07-29T12:13:30;96329.16;;;22.24;80.88
56142;BME280;42018;48.588;10.836;2023-07-29T12:27:31;96316.84;;;23.16;78.51
56142;BME280;42018;48.588;10.836;2023-07-29T12:30:22;96303.28;;;23.13;77.57
56142;BME280;42018;48.588;10.836;2023-07-29T12:33:08;96302.63;;;23.00;76.17
56142;BME280;42018;48.588;10.836;2023-07-29T12:47:13;96272.25;;;23.49;76.77
56142;BME280;42018;48.588;10.836;2023-07-29T12:49:58;96283.69;;;24.11;73.07
56142;BME280;42018;48.588;10.836;2023-07-29T13:11:02;96297.38;;;23.73;68.48
56142;BME280;42018;48.588;10.836;2023-07-29T13:21:36;96306.28;;;24.46;66.00
56142;BME280;42018;48.588;10.836;2023-07-29T13:24:21;96306.00;;;24.54;65.15
56142;BME280;42018;48.588;10.836;2023-07-29T13:35:06;96306.13;;;23.85;65.17
56142;BME280;42018;48.588;10.836;2023-07-29T15:27:14;96275.28;;;25.07;62.14
56142;BME280;42018;48.588;10.836;2023-07-29T16:48:45;96358.69;;;20.61;84.94
56142;BME280;42018;48.588;10.836;2023-07-29T16:51:43;96353.63;;;20.47;86.80
56142;BME280;42018;48.588;10.836;2023-07-29T18:16:49;96355.91;;;18.96;91.11
56142;BME280;42018;48.588;10.836;2023-07-29T18:19:34;96356.63;;;19.05;91.21
56142;BME280;42018;48.588;10.836;2023-07-29T18:38:03;96366.56;;;19.05;91.81
56142;BME280;42018;48.588;10.836;2023-07-29T18:40:49;96373.31;;;19.11;91.48
56142;BME280;42018;48.588;10.836;2023-07-29T19:13:39;96390.28;;;19.03;90.10
56142;BME280;42018;48.588;10.836;2023-07-29T20:24:55;96408.81;;;19.17;88.91
56142;BME280;42018;48.588;10.836;2023-07-29T21:50:43;96441.63;;;19.22;88.76
56142;BME280;42018;48.588;10.836;2023-07-29T21:53:29;96446.00;;;19.48;87.76
56142;BME280;42018;48.588;10.836;2023-07-29T21:56:14;96435.44;;;19.64;86.87
56142;BME280;42018;48.588;10.836;2023-07-29T21:58:59;96442.78;;;19.54;86.84
56142;BME280;42018;48.588;10.836;2023-07-29T22:01:45;96448.69;;;19.69;86.00
56142;BME280;42018;48.588;10.836;2023-07-29T22:04:30;96447.81;;;19.56;86.75
56142;BME280;42018;48.588;10.836;2023-07-29T22:07:16;96448.41;;;19.61;85.61
56142;BME280;42018;48.588;10.836;2023-07-29T22:10:02;96443.50;;;19.64;86.20
56142;BME280;42018;48.588;10.836;2023-07-29T22:12:47;96446.88;;;19.40;86.36
56142;BME280;42018;48.588;10.836;2023-07-29T22:15:36;96450.91;;;19.46;86.04
56142;BME280;42018;48.588;10.836;2023-07-29T22:18:22;96443.03;;;19.61;85.02
56142;BME280;42018;48.588;10.836;2023-07-29T22:21:07;96443.69;;;19.58;85.15
56142;BME280;42018;48.588;10.836;2023-07-29T22:23:52;96448.03;;;19.51;85.77
56142;BME280;42018;48.588;10.836;2023-07-29T22:26:38;96439.78;;;19.35;86.62
56142;BME280;42018;48.588;10.836;2023-07-29T22:29:23;96448.78;;;19.39;86.80
56142;BME280;42018;48.588;10.836;2023-07-29T22:32:08;96447.53;;;19.36;86.41
56142;BME280;42018;48.588;10.836;2023-07-29T22:34:54;96445.38;;;19.30;86.50
56142;BME280;42018;48.588;10.836;2023-07-29T22:37:39;96435.28;;;19.27;86.64
56142;BME280;42018;48.588;10.836;2023-07-29T22:40:24;96440.13;;;19.33;86.07
56142;BME280;42018;48.588;10.836;2023-07-29T22:43:10;96443.59;;;19.34;86.79
56142;BME280;42018;48.588;10.836;2023-07-29T22:45:57;96441.81;;;19.38;86.71
56142;BME280;42018;48.588;10.836;2023-07-29T22:48:43;96434.78;;;19.46;86.16
56142;BME280;42018;48.588;10.836;2023-07-29T22:51:28;96433.16;;;19.53;84.90
56142;BME280;42018;48.588;10.836;2023-07-29T22:54:13;96435.91;;;19.45;85.03
56142;BME280;42018;48.588;10.836;2023-07-29T22:56:59;96431.00;;;19.47;84.91
56142;BME280;42018;48.588;10.836;2023-07-29T22:59:44;96426.94;;;19.41;85.00
56142;BME280;42018;48.588;10.836;2023-07-29T23:02:29;96426.94;;;19.41;85.06
56142;BME280;42018;48.588;10.836;2023-07-29T23:05:15;96424.03;;;19.46;84.81
56142;BME280;42018;48.588;10.836;2023-07-29T23:08:00;96420.56;;;19.45;83.86
56142;BME280;42018;48.588;10.836;2023-07-29T23:10:46;96408.53;;;19.30;83.90
56142;BME280;42018;48.588;10.836;2023-07-29T23:13:31;96412.41;;;19.21;84.92
56142;BME280;42018;48.588;10.836;2023-07-29T23:16:16;96410.59;;;19.12;86.00
56142;BME280;42018;48.588;10.836;2023-07-29T23:19:01;96418.59;;;19.21;85.77
56142;BME280;42018;48.588;10.836;2023-07-29T23:21:47;96408.50;;;19.18;86.17
56142;BME280;42018;48.588;10.836;2023-07-29T23:24:32;96406.34;;;19.11;86.41
56142;BME280;42018;48.588;10.836;2023-07-29T23:27:18;96408.09;;;19.07;86.36
56142;BME280;42018;48.588;10.836;2023-07-29T23:30:03;96407.59;;;19.14;85.96
56142;BME280;42018;48.588;10.836;2023-07-29T23:32:51;96404.81;;;19.02;86.97
56142;BME280;42018;48.588;10.836;2023-07-29T23:35:36;96408.50;;;18.67;87.81
56142;BME280;42018;48.588;10.836;2023-07-29T23:38:22;96410.84;;;18.99;87.38
56142;BME280;42018;48.588;10.836;2023-07-29T23:41:07;96402.91;;;18.81;88.25
56142;BME280;42018;48.588;10.836;2023-07-29T23:43:52;96409.72;;;18.79;88.98
56142;BME280;42018;48.588;10.836;2023-07-29T23:46:38;96412.75;;;18.69;88.95
56142;BME280;42018;48.588;10.836;2023-07-29T23:49:24;96412.28;;;18.66;89.17
56142;BME280;42018;48.588;10.836;2023-07-29T23:52:09;96413.13;;;18.58;89.55
56142;BME280;42018;48.588;10.836;2023-07-29T23:54:54;96411.84;;;18.64;90.63
56142;BME280;42018;48.588;10.836;2023-07-29T23:57:40;96406.00;;;18.62;90.94
